sensor_id;sensor_type;location;lat;lon;timestamp;P1;durP1;ratioP1;P2;durP2;ratioP2
19004;SDS011;9635;52.078;8.648;2023-05-16T00:04:30;18.17;;;11.60;;
19004;SDS011;9635;52.078;8.648;2023-05-16T00:09:34;17.75;;;11.15;;
19004;SDS011;9635;52.078;8.648;2023-05-16T00:14:37;18.63;;;11.77;;
19004;SDS011;9635;52.078;8.648;2023-05-16T00:19:41;15.70;;;11.15;;
19004;SDS011;9635;52.078;8.648;2023-05-16T00:24:46;17.17;;;11.23;;
19004;SDS011;9635;52.078;8.648;2023-05-16T00:29:48;17.60;;;10.45;;
19004;SDS011;9635;52.078;8.648;2023-05-16T00:34:53;18.83;;;10.43;;
19004;SDS011;9635;52.078;8.648;2023-05-16T00:39:55;14.98;;;10.30;;
19004;SDS011;9635;52.078;8.648;2023-05-16T00:44:58;16.45;;;10.00;;
19004;SDS011;9635;52.078;8.648;2023-05-16T00:50:04;13.57;;;9.63;;
19004;SDS011;9635;52.078;8.648;2023-05-16T00:55:07;13.88;;;8.82;;
19004;SDS011;9635;52.078;8.648;2023-05-16T01:00:12;14.65;;;8.90;;
19004;SDS011;9635;52.078;8.648;2023-05-16T01:05:17;11.65;;;8.30;;
19004;SDS011;9635;52.078;8.648;2023-05-16T01:10:20;14.55;;;8.45;;
19004;SDS011;9635;52.078;8.648;2023-05-16T01:15:24;10.15;;;6.57;;
19004;SDS011;9635;52.078;8.648;2023-05-16T01:20:36;11.30;;;6.18;;
19004;SDS011;9635;52.078;8.648;2023-05-16T01:25:48;8.60;;;5.43;;
19004;SDS011;9635;52.078;8.648;2023-05-16T01:31:00;7.15;;;5.13;;
19004;SDS011;9635;52.078;8.648;2023-05-16T01:36:05;9.30;;;5.22;;
19004;SDS011;9635;52.078;8.648;2023-05-16T01:41:19;7.15;;;5.25;;
19004;SDS011;9635;52.078;8.648;2023-05-16T01:46:30;9.52;;;5.20;;
19004;SDS011;9635;52.078;8.648;2023-05-16T01:51:40;5.65;;;5.05;;
19004;SDS011;9635;52.078;8.648;2023-05-16T01:56:46;7.68;;;4.85;;
19004;SDS011;9635;52.078;8.648;2023-05-16T02:01:56;7.22;;;4.53;;
19004;SDS011;9635;52.078;8.648;2023-05-16T02:06:59;7.85;;;4.72;;
19004;SDS011;9635;52.078;8.648;2023-05-16T02:12:02;10.30;;;5.00;;
19004;SDS011;9635;52.078;8.648;2023-05-16T02:17:07;10.10;;;4.80;;
19004;SDS011;9635;52.078;8.648;2023-05-16T02:22:10;8.10;;;3.95;;
19004;SDS011;9635;52.078;8.648;2023-05-16T02:27:13;8.25;;;3.75;;
19004;SDS011;9635;52.078;8.648;2023-05-16T02:32:17;18.83;;;4.28;;
19004;SDS011;9635;52.078;8.648;2023-05-16T02:37:20;8.10;;;3.35;;
19004;SDS011;9635;52.078;8.648;2023-05-16T02:42:24;15.18;;;3.20;;
19004;SDS011;9635;52.078;8.648;2023-05-16T02:47:28;9.38;;;3.70;;
19004;SDS011;9635;52.078;8.648;2023-05-16T02:52:33;9.55;;;4.10;;
19004;SDS011;9635;52.078;8.648;2023-05-16T02:57:36;11.63;;;3.50;;
19004;SDS011;9635;52.078;8.648;2023-05-16T03:02:40;9.50;;;3.03;;
19004;SDS011;9635;52.078;8.648;2023-05-16T03:07:43;10.00;;;3.30;;
19004;SDS011;9635;52.078;8.648;2023-05-16T03:12:46;21.23;;;5.70;;
19004;SDS011;9635;52.078;8.648;2023-05-16T03:17:50;11.55;;;3.15;;
19004;SDS011;9635;52.078;8.648;2023-05-16T03:22:53;11.88;;;3.65;;
19004;SDS011;9635;52.078;8.648;2023-05-16T03:27:56;13.98;;;2.95;;
19004;SDS011;9635;52.078;8.648;2023-05-16T03:33:00;9.52;;;3.20;;
19004;SDS011;9635;52.078;8.648;2023-05-16T03:38:04;8.93;;;3.15;;
19004;SDS011;9635;52.078;8.648;2023-05-16T03:43:07;12.65;;;3.45;;
19004;SDS011;9635;52.078;8.648;2023-05-16T03:48:11;11.55;;;2.58;;
19004;SDS011;9635;52.078;8.648;2023-05-16T03:53:14;9.68;;;2.90;;
19004;SDS011;9635;52.078;8.648;2023-05-16T03:58:17;13.23;;;3.13;;
19004;SDS011;9635;52.078;8.648;2023-05-16T04:03:21;15.73;;;3.00;;
19004;SDS011;9635;52.078;8.648;2023-05-16T04:08:29;15.02;;;3.00;;
19004;SDS011;9635;52.078;8.648;2023-05-16T04:13:32;17.90;;;3.80;;
19004;SDS011;9635;52.078;8.648;2023-05-16T04:18:36;16.88;;;4.05;;
19004;SDS011;9635;52.078;8.648;2023-05-16T04:23:39;10.73;;;2.92;;
19004;SDS011;9635;52.078;8.648;2023-05-16T04:28:41;10.00;;;3.17;;
19004;SDS011;9635;52.078;8.648;2023-05-16T04:33:46;17.05;;;3.05;;
19004;SDS011;9635;52.078;8.648;2023-05-16T04:38:48;20.15;;;3.08;;
19004;SDS011;9635;52.078;8.648;2023-05-16T04:43:51;15.55;;;4.32;;
19004;SDS011;9635;52.078;8.648;2023-05-16T04:48:56;20.48;;;4.47;;
19004;SDS011;9635;52.078;8.648;2023-05-16T04:53:59;19.20;;;2.53;;
19004;SDS011;9635;52.078;8.648;2023-05-16T04:59:02;10.98;;;3.80;;
19004;SDS011;9635;52.078;8.648;2023-05-16T05:04:06;12.52;;;2.10;;
19004;SDS011;9635;52.078;8.648;2023-05-16T05:09:10;16.67;;;2.50;;
19004;SDS011;9635;52.078;8.648;2023-05-16T05:14:13;19.05;;;2.72;;
19004;SDS011;9635;52.078;8.648;2023-05-16T05:19:18;13.02;;;2.58;;
19004;SDS011;9635;52.078;8.648;2023-05-16T05:24:21;20.52;;;3.25;;
19004;SDS011;9635;52.078;8.648;2023-05-16T05:29:24;21.98;;;2.78;;
19004;SDS011;9635;52.078;8.648;2023-05-16T05:34:28;17.73;;;3.50;;
19004;SDS011;9635;52.078;8.648;2023-05-16T05:39:31;13.40;;;2.92;;
19004;SDS011;9635;52.078;8.648;2023-05-16T05:44:33;12.25;;;2.63;;
19004;SDS011;9635;52.078;8.648;2023-05-16T05:49:39;17.88;;;2.53;;
19004;SDS011;9635;52.078;8.648;2023-05-16T05:54:42;11.13;;;2.47;;
19004;SDS011;9635;52.078;8.648;2023-05-16T05:59:45;18.67;;;2.88;;
19004;SDS011;9635;52.078;8.648;2023-05-16T06:04:49;14.73;;;3.85;;
19004;SDS011;9635;52.078;8.648;2023-05-16T06:09:52;14.05;;;2.53;;
19004;SDS011;9635;52.078;8.648;2023-05-16T06:14:55;17.77;;;3.05;;
19004;SDS011;9635;52.078;8.648;2023-05-16T06:19:59;17.65;;;2.47;;
19004;SDS011;9635;52.078;8.648;2023-05-16T06:25:02;21.50;;;3.17;;
19004;SDS011;9635;52.078;8.648;2023-05-16T06:30:05;14.50;;;2.42;;
19004;SDS011;9635;52.078;8.648;2023-05-16T06:35:10;17.15;;;2.65;;
19004;SDS011;9635;52.078;8.648;2023-05-16T06:40:13;15.35;;;3.40;;
19004;SDS011;9635;52.078;8.648;2023-05-16T06:45:16;14.75;;;2.47;;
19004;SDS011;9635;52.078;8.648;2023-05-16T06:50:20;21.88;;;3.42;;
19004;SDS011;9635;52.078;8.648;2023-05-16T06:55:23;11.23;;;2.42;;
19004;SDS011;9635;52.078;8.648;2023-05-16T07:00:26;13.63;;;3.60;;
19004;SDS011;9635;52.078;8.648;2023-05-16T07:05:31;34.70;;;5.75;;
19004;SDS011;9635;52.078;8.648;2023-05-16T07:10:33;31.27;;;5.30;;
19004;SDS011;9635;52.078;8.648;2023-05-16T07:15:37;17.15;;;2.78;;
19004;SDS011;9635;52.078;8.648;2023-05-16T07:20:41;17.50;;;3.03;;
19004;SDS011;9635;52.078;8.648;2023-05-16T07:25:43;14.23;;;1.65;;
19004;SDS011;9635;52.078;8.648;2023-05-16T07:30:46;7.57;;;1.63;;
19004;SDS011;9635;52.078;8.648;2023-05-16T07:35:51;27.42;;;4.43;;
19004;SDS011;9635;52.078;8.648;2023-05-16T07:41:08;9.23;;;0.93;;
19004;SDS011;9635;52.078;8.648;2023-05-16T07:46:11;6.88;;;1.75;;
19004;SDS011;9635;52.078;8.648;2023-05-16T07:51:16;10.20;;;1.95;;
19004;SDS011;9635;52.078;8.648;2023-05-16T07:56:18;9.63;;;1.52;;
19004;SDS011;9635;52.078;8.648;2023-05-16T08:01:22;10.00;;;1.65;;
19004;SDS011;9635;52.078;8.648;2023-05-16T08:06:26;16.30;;;3.45;;
19004;SDS011;9635;52.078;8.648;2023-05-16T08:11:30;8.65;;;1.40;;
19004;SDS011;9635;52.078;8.648;2023-05-16T08:16:32;12.95;;;1.63;;
19004;SDS011;9635;52.078;8.648;2023-05-16T08:21:37;8.63;;;1.38;;
19004;SDS011;9635;52.078;8.648;2023-05-16T08:26:41;10.50;;;1.65;;
19004;SDS011;9635;52.078;8.648;2023-05-16T08:31:43;6.28;;;1.52;;
19004;SDS011;9635;52.078;8.648;2023-05-16T08:36:48;5.50;;;1.30;;
19004;SDS011;9635;52.078;8.648;2023-05-16T08:41:50;7.05;;;1.23;;
19004;SDS011;9635;52.078;8.648;2023-05-16T08:46:53;4.20;;;1.38;;
19004;SDS011;9635;52.078;8.648;2023-05-16T08:51:58;4.95;;;1.05;;
19004;SDS011;9635;52.078;8.648;2023-05-16T08:57:03;14.80;;;2.75;;
19004;SDS011;9635;52.078;8.648;2023-05-16T09:02:07;9.25;;;1.75;;
19004;SDS011;9635;52.078;8.648;2023-05-16T09:07:12;5.65;;;1.25;;
19004;SDS011;9635;52.078;8.648;2023-05-16T09:12:14;6.47;;;1.15;;
19004;SDS011;9635;52.078;8.648;2023-05-16T09:17:17;5.68;;;1.33;;
19004;SDS011;9635;52.078;8.648;2023-05-16T09:22:38;7.28;;;1.33;;
19004;SDS011;9635;52.078;8.648;2023-05-16T09:27:41;7.50;;;1.48;;
19004;SDS011;9635;52.078;8.648;2023-05-16T09:32:44;7.43;;;1.23;;
19004;SDS011;9635;52.078;8.648;2023-05-16T09:37:49;6.22;;;1.20;;
19004;SDS011;9635;52.078;8.648;2023-05-16T09:43:00;6.75;;;1.52;;
19004;SDS011;9635;52.078;8.648;2023-05-16T09:48:05;9.98;;;1.20;;
19004;SDS011;9635;52.078;8.648;2023-05-16T09:53:12;7.97;;;1.13;;
19004;SDS011;9635;52.078;8.648;2023-05-16T09:58:15;3.58;;;1.08;;
19004;SDS011;9635;52.078;8.648;2023-05-16T10:03:19;3.80;;;1.20;;
19004;SDS011;9635;52.078;8.648;2023-05-16T10:08:24;7.03;;;1.00;;
19004;SDS011;9635;52.078;8.648;2023-05-16T10:13:28;4.72;;;1.10;;
19004;SDS011;9635;52.078;8.648;2023-05-16T10:18:32;5.57;;;1.08;;
19004;SDS011;9635;52.078;8.648;2023-05-16T10:23:39;6.57;;;1.08;;
19004;SDS011;9635;52.078;8.648;2023-05-16T10:28:44;10.23;;;1.75;;
19004;SDS011;9635;52.078;8.648;2023-05-16T10:33:47;7.20;;;1.20;;
19004;SDS011;9635;52.078;8.648;2023-05-16T10:38:52;4.25;;;0.93;;
19004;SDS011;9635;52.078;8.648;2023-05-16T10:43:56;4.78;;;0.95;;
19004;SDS011;9635;52.078;8.648;2023-05-16T10:48:59;3.20;;;0.90;;
19004;SDS011;9635;52.078;8.648;2023-05-16T10:54:24;5.20;;;1.30;;
19004;SDS011;9635;52.078;8.648;2023-05-16T10:59:40;5.40;;;1.10;;
19004;SDS011;9635;52.078;8.648;2023-05-16T11:04:44;6.22;;;1.10;;
19004;SDS011;9635;52.078;8.648;2023-05-16T11:10:02;6.05;;;1.13;;
19004;SDS011;9635;52.078;8.648;2023-05-16T11:15:19;6.00;;;1.67;;
19004;SDS011;9635;52.078;8.648;2023-05-16T11:20:26;3.80;;;0.82;;
19004;SDS011;9635;52.078;8.648;2023-05-16T11:25:36;6.28;;;1.30;;
19004;SDS011;9635;52.078;8.648;2023-05-16T11:30:42;5.40;;;1.83;;
19004;SDS011;9635;52.078;8.648;2023-05-16T11:35:58;8.18;;;1.85;;
19004;SDS011;9635;52.078;8.648;2023-05-16T11:41:17;5.63;;;0.90;;
19004;SDS011;9635;52.078;8.648;2023-05-16T11:46:22;3.50;;;0.95;;
19004;SDS011;9635;52.078;8.648;2023-05-16T11:51:25;7.03;;;1.05;;
19004;SDS011;9635;52.078;8.648;2023-05-16T11:56:29;2.45;;;0.85;;
19004;SDS011;9635;52.078;8.648;2023-05-16T12:01:32;6.10;;;1.15;;
19004;SDS011;9635;52.078;8.648;2023-05-16T12:06:36;2.60;;;1.15;;
19004;SDS011;9635;52.078;8.648;2023-05-16T12:11:41;4.53;;;1.15;;
19004;SDS011;9635;52.078;8.648;2023-05-16T12:16:45;8.25;;;1.45;;
19004;SDS011;9635;52.078;8.648;2023-05-16T12:21:51;5.38;;;1.45;;
19004;SDS011;9635;52.078;8.648;2023-05-16T12:26:56;5.45;;;1.10;;
19004;SDS011;9635;52.078;8.648;2023-05-16T12:31:59;7.57;;;1.33;;
19004;SDS011;9635;52.078;8.648;2023-05-16T12:37:03;4.35;;;1.17;;
19004;SDS011;9635;52.078;8.648;2023-05-16T12:42:08;5.85;;;1.40;;
19004;SDS011;9635;52.078;8.648;2023-05-16T12:47:13;7.18;;;1.10;;
19004;SDS011;9635;52.078;8.648;2023-05-16T12:52:17;4.55;;;1.00;;
19004;SDS011;9635;52.078;8.648;2023-05-16T12:57:22;3.75;;;0.80;;
19004;SDS011;9635;52.078;8.648;2023-05-16T13:02:25;5.18;;;0.82;;
19004;SDS011;9635;52.078;8.648;2023-05-16T13:07:28;5.50;;;0.90;;
19004;SDS011;9635;52.078;8.648;2023-05-16T13:12:32;4.85;;;0.80;;
19004;SDS011;9635;52.078;8.648;2023-05-16T13:17:35;5.57;;;0.90;;
19004;SDS011;9635;52.078;8.648;2023-05-16T13:22:40;8.52;;;1.60;;
19004;SDS011;9635;52.078;8.648;2023-05-16T13:27:44;2.85;;;0.73;;
19004;SDS011;9635;52.078;8.648;2023-05-16T13:32:49;5.75;;;0.90;;
19004;SDS011;9635;52.078;8.648;2023-05-16T13:37:52;5.95;;;0.80;;
19004;SDS011;9635;52.078;8.648;2023-05-16T13:42:57;2.95;;;0.75;;
19004;SDS011;9635;52.078;8.648;2023-05-16T13:48:01;2.78;;;0.75;;
19004;SDS011;9635;52.078;8.648;2023-05-16T13:53:05;2.67;;;1.10;;
19004;SDS011;9635;52.078;8.648;2023-05-16T13:58:09;4.40;;;1.20;;
19004;SDS011;9635;52.078;8.648;2023-05-16T14:03:12;5.15;;;0.90;;
19004;SDS011;9635;52.078;8.648;2023-05-16T14:08:15;5.45;;;1.33;;
19004;SDS011;9635;52.078;8.648;2023-05-16T14:13:19;4.90;;;1.10;;
19004;SDS011;9635;52.078;8.648;2023-05-16T14:18:22;3.95;;;1.00;;
19004;SDS011;9635;52.078;8.648;2023-05-16T14:23:25;3.97;;;0.75;;
19004;SDS011;9635;52.078;8.648;2023-05-16T14:28:29;3.47;;;0.80;;
19004;SDS011;9635;52.078;8.648;2023-05-16T14:33:33;5.30;;;1.52;;
19004;SDS011;9635;52.078;8.648;2023-05-16T14:38:35;8.02;;;1.00;;
19004;SDS011;9635;52.078;8.648;2023-05-16T14:43:40;5.90;;;1.33;;
19004;SDS011;9635;52.078;8.648;2023-05-16T14:48:42;6.90;;;1.05;;
19004;SDS011;9635;52.078;8.648;2023-05-16T14:53:45;3.90;;;1.23;;
19004;SDS011;9635;52.078;8.648;2023-05-16T14:58:49;7.25;;;1.30;;
19004;SDS011;9635;52.078;8.648;2023-05-16T15:03:52;5.43;;;0.60;;
19004;SDS011;9635;52.078;8.648;2023-05-16T15:08:57;5.70;;;0.90;;
19004;SDS011;9635;52.078;8.648;2023-05-16T15:14:01;4.03;;;1.13;;
19004;SDS011;9635;52.078;8.648;2023-05-16T15:19:04;5.78;;;1.10;;
19004;SDS011;9635;52.078;8.648;2023-05-16T15:24:07;3.65;;;0.98;;
19004;SDS011;9635;52.078;8.648;2023-05-16T15:29:11;6.70;;;1.40;;
19004;SDS011;9635;52.078;8.648;2023-05-16T15:34:14;6.13;;;1.30;;
19004;SDS011;9635;52.078;8.648;2023-05-16T15:39:17;4.85;;;1.00;;
19004;SDS011;9635;52.078;8.648;2023-05-16T15:44:21;7.13;;;1.40;;
19004;SDS011;9635;52.078;8.648;2023-05-16T15:49:24;6.70;;;1.20;;
19004;SDS011;9635;52.078;8.648;2023-05-16T15:54:27;5.82;;;1.00;;
19004;SDS011;9635;52.078;8.648;2023-05-16T15:59:31;4.78;;;1.20;;
19004;SDS011;9635;52.078;8.648;2023-05-16T16:04:34;8.18;;;1.27;;
19004;SDS011;9635;52.078;8.648;2023-05-16T16:09:37;4.57;;;1.00;;
19004;SDS011;9635;52.078;8.648;2023-05-16T16:14:41;5.85;;;1.33;;
19004;SDS011;9635;52.078;8.648;2023-05-16T16:19:44;3.38;;;1.23;;
19004;SDS011;9635;52.078;8.648;2023-05-16T16:24:47;5.18;;;1.83;;
19004;SDS011;9635;52.078;8.648;2023-05-16T16:29:51;3.97;;;1.15;;
19004;SDS011;9635;52.078;8.648;2023-05-16T16:34:54;5.40;;;0.93;;
19004;SDS011;9635;52.078;8.648;2023-05-16T16:39:57;5.88;;;1.42;;
19004;SDS011;9635;52.078;8.648;2023-05-16T16:45:01;5.20;;;1.35;;
19004;SDS011;9635;52.078;8.648;2023-05-16T16:50:04;2.50;;;1.05;;
19004;SDS011;9635;52.078;8.648;2023-05-16T16:55:08;7.45;;;1.90;;
19004;SDS011;9635;52.078;8.648;2023-05-16T17:00:15;7.53;;;1.73;;
19004;SDS011;9635;52.078;8.648;2023-05-16T17:05:18;3.78;;;1.63;;
19004;SDS011;9635;52.078;8.648;2023-05-16T17:10:21;7.63;;;2.40;;
19004;SDS011;9635;52.078;8.648;2023-05-16T17:15:25;6.78;;;1.70;;
19004;SDS011;9635;52.078;8.648;2023-05-16T17:20:28;9.85;;;1.90;;
19004;SDS011;9635;52.078;8.648;2023-05-16T17:25:31;5.30;;;1.85;;
19004;SDS011;9635;52.078;8.648;2023-05-16T17:30:36;11.30;;;2.60;;
19004;SDS011;9635;52.078;8.648;2023-05-16T17:35:39;7.53;;;3.00;;
19004;SDS011;9635;52.078;8.648;2023-05-16T17:40:42;6.47;;;2.10;;
19004;SDS011;9635;52.078;8.648;2023-05-16T17:45:46;5.75;;;2.47;;
19004;SDS011;9635;52.078;8.648;2023-05-16T17:50:49;6.18;;;2.00;;
19004;SDS011;9635;52.078;8.648;2023-05-16T17:55:52;6.60;;;2.55;;
19004;SDS011;9635;52.078;8.648;2023-05-16T18:00:57;10.68;;;3.28;;
19004;SDS011;9635;52.078;8.648;2023-05-16T18:06:00;6.40;;;2.90;;
19004;SDS011;9635;52.078;8.648;2023-05-16T18:11:03;9.20;;;3.10;;
19004;SDS011;9635;52.078;8.648;2023-05-16T18:16:07;8.68;;;3.20;;
19004;SDS011;9635;52.078;8.648;2023-05-16T18:21:10;6.53;;;3.38;;
19004;SDS011;9635;52.078;8.648;2023-05-16T18:26:13;8.65;;;3.00;;
19004;SDS011;9635;52.078;8.648;2023-05-16T18:31:19;7.53;;;2.95;;
19004;SDS011;9635;52.078;8.648;2023-05-16T18:36:22;6.20;;;2.80;;
19004;SDS011;9635;52.078;8.648;2023-05-16T18:41:25;5.78;;;2.70;;
19004;SDS011;9635;52.078;8.648;2023-05-16T18:46:29;5.57;;;2.55;;
19004;SDS011;9635;52.078;8.648;2023-05-16T18:51:32;5.03;;;2.00;;
19004;SDS011;9635;52.078;8.648;2023-05-16T18:56:35;5.43;;;2.95;;
19004;SDS011;9635;52.078;8.648;2023-05-16T19:01:39;8.02;;;2.78;;
19004;SDS011;9635;52.078;8.648;2023-05-16T19:06:42;3.83;;;2.33;;
19004;SDS011;9635;52.078;8.648;2023-05-16T19:11:46;5.78;;;2.65;;
19004;SDS011;9635;52.078;8.648;2023-05-16T19:16:50;6.20;;;2.45;;
19004;SDS011;9635;52.078;8.648;2023-05-16T19:21:53;5.25;;;2.63;;
19004;SDS011;9635;52.078;8.648;2023-05-16T19:26:56;6.07;;;2.78;;
19004;SDS011;9635;52.078;8.648;2023-05-16T19:32:00;4.82;;;2.28;;
19004;SDS011;9635;52.078;8.648;2023-05-16T19:37:03;4.03;;;2.13;;
19004;SDS011;9635;52.078;8.648;2023-05-16T19:42:06;3.58;;;2.03;;
19004;SDS011;9635;52.078;8.648;2023-05-16T19:47:11;6.32;;;1.98;;
19004;SDS011;9635;52.078;8.648;2023-05-16T19:52:14;2.53;;;2.15;;
19004;SDS011;9635;52.078;8.648;2023-05-16T19:57:17;4.20;;;2.13;;
19004;SDS011;9635;52.078;8.648;2023-05-16T20:02:21;6.03;;;2.25;;
19004;SDS011;9635;52.078;8.648;2023-05-16T20:07:25;4.90;;;2.35;;
19004;SDS011;9635;52.078;8.648;2023-05-16T20:12:28;6.43;;;2.55;;
19004;SDS011;9635;52.078;8.648;2023-05-16T20:17:32;3.20;;;1.60;;
19004;SDS011;9635;52.078;8.648;2023-05-16T20:22:35;4.82;;;1.90;;
19004;SDS011;9635;52.078;8.648;2023-05-16T20:27:39;4.97;;;2.10;;
19004;SDS011;9635;52.078;8.648;2023-05-16T20:32:43;5.40;;;2.75;;
19004;SDS011;9635;52.078;8.648;2023-05-16T20:37:46;4.97;;;2.53;;
19004;SDS011;9635;52.078;8.648;2023-05-16T20:42:49;2.55;;;1.75;;
19004;SDS011;9635;52.078;8.648;2023-05-16T20:47:53;5.47;;;2.20;;
19004;SDS011;9635;52.078;8.648;2023-05-16T20:52:56;4.57;;;2.00;;
19004;SDS011;9635;52.078;8.648;2023-05-16T20:57:59;8.25;;;2.22;;
19004;SDS011;9635;52.078;8.648;2023-05-16T21:03:03;5.70;;;1.73;;
19004;SDS011;9635;52.078;8.648;2023-05-16T21:08:06;6.57;;;1.60;;
19004;SDS011;9635;52.078;8.648;2023-05-16T21:13:09;4.90;;;1.90;;
19004;SDS011;9635;52.078;8.648;2023-05-16T21:18:13;4.55;;;1.90;;
19004;SDS011;9635;52.078;8.648;2023-05-16T21:23:16;6.43;;;2.25;;
19004;SDS011;9635;52.078;8.648;2023-05-16T21:28:19;7.30;;;2.10;;
19004;SDS011;9635;52.078;8.648;2023-05-16T21:33:24;6.80;;;1.60;;
19004;SDS011;9635;52.078;8.648;2023-05-16T21:38:26;5.45;;;2.17;;
19004;SDS011;9635;52.078;8.648;2023-05-16T21:43:29;6.07;;;1.80;;
19004;SDS011;9635;52.078;8.648;2023-05-16T21:48:34;7.32;;;2.30;;
19004;SDS011;9635;52.078;8.648;2023-05-16T21:53:36;6.70;;;2.20;;
19004;SDS011;9635;52.078;8.648;2023-05-16T21:58:39;7.28;;;2.10;;
19004;SDS011;9635;52.078;8.648;2023-05-16T22:03:44;7.55;;;2.20;;
19004;SDS011;9635;52.078;8.648;2023-05-16T22:08:47;3.65;;;1.75;;
19004;SDS011;9635;52.078;8.648;2023-05-16T22:13:50;6.45;;;2.30;;
19004;SDS011;9635;52.078;8.648;2023-05-16T22:18:54;4.07;;;1.92;;
19004;SDS011;9635;52.078;8.648;2023-05-16T22:23:57;6.85;;;1.90;;
19004;SDS011;9635;52.078;8.648;2023-05-16T22:29:00;4.68;;;2.33;;
19004;SDS011;9635;52.078;8.648;2023-05-16T22:34:04;6.05;;;2.17;;
19004;SDS011;9635;52.078;8.648;2023-05-16T22:39:07;9.48;;;2.35;;
19004;SDS011;9635;52.078;8.648;2023-05-16T22:44:10;6.20;;;2.38;;
19004;SDS011;9635;52.078;8.648;2023-05-16T22:49:15;7.35;;;2.38;;
19004;SDS011;9635;52.078;8.648;2023-05-16T22:54:17;7.75;;;2.53;;
19004;SDS011;9635;52.078;8.648;2023-05-16T22:59:20;7.22;;;2.33;;
19004;SDS011;9635;52.078;8.648;2023-05-16T23:04:24;6.72;;;2.70;;
19004;SDS011;9635;52.078;8.648;2023-05-16T23:09:27;6.90;;;2.45;;
19004;SDS011;9635;52.078;8.648;2023-05-16T23:14:30;5.43;;;2.15;;
19004;SDS011;9635;52.078;8.648;2023-05-16T23:19:34;6.65;;;2.50;;
19004;SDS011;9635;52.078;8.648;2023-05-16T23:24:37;11.23;;;2.88;;
19004;SDS011;9635;52.078;8.648;2023-05-16T23:29:40;6.20;;;2.33;;
19004;SDS011;9635;52.078;8.648;2023-05-16T23:34:44;6.63;;;2.55;;
19004;SDS011;9635;52.078;8.648;2023-05-16T23:39:47;9.48;;;2.78;;
19004;SDS011;9635;52.078;8.648;2023-05-16T23:51:45;7.68;;;2.60;;
19004;SDS011;9635;52.078;8.648;2023-05-16T23:56:58;11.48;;;3.20;;
